Time;durP1;ratioP1;P1;durP2;ratioP2;P2;SDS_P1;SDS_P2;PMS_P1;PMS_P2;Temp;Humidity;BMP_temperature;BMP_pressure;BME280_temperature;BME280_humidity;BME280_pressure;Samples;Min_cycle;Max_cycle;Signal;HPM_P1;HPM_P2
2022/04/18 00:00:45;;;;;;;;;;;8.70;59.20;;;;;;5071127;28;19928;-86
2022/04/18 00:03:12;;;;;;;;;;;8.60;59.00;;;;;;5068672;28;19932;-87
2022/04/18 00:05:39;;;;;;;;;;;8.60;59.30;;;;;;5069498;28;20410;-86
2022/04/18 00:08:05;;;;;;;;;;;8.60;59.70;;;;;;5073301;28;19925;-86
2022/04/18 00:10:32;;;;;;;;;;;8.50;60.70;;;;;;5072595;28;20373;-86
2022/04/18 00:12:58;;;;;;;;;;;8.50;60.40;;;;;;5069514;28;19924;-86
2022/04/18 00:15:25;;;;;;;;;;;8.50;60.00;;;;;;5066227;28;19931;-86
2022/04/18 00:17:51;;;;;;;;;;;8.50;60.10;;;;;;5072206;28;19924;-86
2022/04/18 00:20:18;;;;;;;;;;;8.50;61.20;;;;;;5068254;28;19932;-86
2022/04/18 00:22:44;;;;;;;;;;;8.50;61.40;;;;;;5106199;28;20650;-88
2022/04/18 00:25:11;;;;;;;;;;;8.40;61.70;;;;;;5073143;28;20344;-87
2022/04/18 00:27:38;;;;;;;;;;;8.30;62.40;;;;;;5071649;28;19932;-88
2022/04/18 00:30:05;;;;;;;;;;;8.30;61.90;;;;;;5072558;28;19934;-86
2022/04/18 00:32:31;;;;;;;;;;;8.30;62.00;;;;;;5061923;28;19924;-87
2022/04/18 00:34:59;;;;;;;;;;;8.30;63.30;;;;;;5072559;28;20356;-86
2022/04/18 00:37:25;;;;;;;;;;;8.20;63.80;;;;;;5059340;28;19925;-86
2022/04/18 00:39:52;;;;;;;;;;;8.20;62.60;;;;;;5073268;28;19924;-87
2022/04/18 00:42:18;;;;;;;;;;;8.20;64.10;;;;;;5103555;28;19924;-90
2022/04/18 00:44:45;;;;;;;;;;;8.10;64.00;;;;;;5072614;28;19935;-87
2022/04/18 00:47:11;;;;;;;;;;;8.10;64.10;;;;;;5071684;28;19931;-88
2022/04/18 00:49:38;;;;;;;;;;;8.10;64.50;;;;;;5065625;28;19928;-87
2022/04/18 00:52:05;;;;;;;;;;;8.00;65.40;;;;;;5062888;28;20011;-87
2022/04/18 00:54:32;;;;;;;;;;;7.90;66.70;;;;;;5072058;28;19948;-87
2022/04/18 00:56:59;;;;;;;;;;;7.90;67.60;;;;;;5071636;28;19924;-87
2022/04/18 00:59:25;;;;;;;;;;;7.90;69.50;;;;;;5072005;28;19924;-88
2022/04/18 01:01:52;;;;;;;;;;;7.80;69.60;;;;;;5071847;28;19924;-88
2022/04/18 01:04:18;;;;;;;;;;;7.70;70.50;;;;;;5067140;28;20003;-88
2022/04/18 01:06:45;;;;;;;;;;;7.70;71.20;;;;;;5065633;28;19999;-88
2022/04/18 01:09:12;;;;;;;;;;;7.60;71.80;;;;;;5071892;28;19924;-87
2022/04/18 01:11:38;;;;;;;;;;;7.60;72.40;;;;;;5070542;28;19929;-86
2022/04/18 01:14:06;;;;;;;;;;;7.50;72.60;;;;;;5072906;28;19928;-86
2022/04/18 01:16:32;;;;;;;;;;;7.50;70.60;;;;;;5066201;28;19932;-86
2022/04/18 01:18:59;;;;;;;;;;;7.50;72.40;;;;;;5069719;28;19925;-86
2022/04/18 01:21:26;;;;;;;;;;;7.40;72.30;;;;;;5071375;28;19924;-86
2022/04/18 01:23:52;;;;;;;;;;;7.40;70.90;;;;;;5072157;28;19924;-87
2022/04/18 01:29:03;;;;;;;;;;;7.40;72.30;;;;;;5067445;28;19925;-86
2022/04/18 01:31:30;;;;;;;;;;;7.40;73.10;;;;;;5096553;28;20387;-86
2022/04/18 01:33:56;;;;;;;;;;;7.30;74.60;;;;;;5070288;28;19932;-86
2022/04/18 01:36:23;;;;;;;;;;;7.30;75.50;;;;;;5056098;28;20376;-86
2022/04/18 01:38:49;;;;;;;;;;;7.20;76.60;;;;;;5068759;28;20390;-86
2022/04/18 01:41:16;;;;;;;;;;;7.20;75.60;;;;;;5071196;28;20707;-85
2022/04/18 01:43:42;;;;;;;;;;;7.30;74.40;;;;;;5069334;28;19935;-85
2022/04/18 01:46:09;;;;;;;;;;;7.30;75.40;;;;;;5062467;28;19924;-86
2022/04/18 01:48:36;;;;;;;;;;;7.20;77.00;;;;;;5066395;28;20372;-85
2022/04/18 01:51:02;;;;;;;;;;;7.20;78.10;;;;;;5061590;28;19947;-85
2022/04/18 01:53:30;;;;;;;;;;;7.20;76.60;;;;;;5070944;28;19946;-86
2022/04/18 01:55:57;;;;;;;;;;;7.10;78.10;;;;;;5072123;28;19928;-85
2022/04/18 01:58:23;;;;;;;;;;;7.10;78.00;;;;;;5060386;28;19932;-88
2022/04/18 02:00:50;;;;;;;;;;;7.10;77.30;;;;;;5064387;28;19929;-86
2022/04/18 02:03:16;;;;;;;;;;;7.10;78.40;;;;;;5068553;28;19936;-85
2022/04/18 02:05:43;;;;;;;;;;;7.10;78.40;;;;;;5063190;28;19951;-86
2022/04/18 02:08:10;;;;;;;;;;;7.00;78.20;;;;;;5071340;28;20348;-87
2022/04/18 02:10:36;;;;;;;;;;;7.00;78.50;;;;;;5059962;28;19924;-86
2022/04/18 02:13:03;;;;;;;;;;;7.00;79.70;;;;;;5065273;28;19925;-85
2022/04/18 02:15:29;;;;;;;;;;;7.00;80.70;;;;;;5055166;28;20004;-85
2022/04/18 02:17:56;;;;;;;;;;;7.00;81.10;;;;;;5069940;28;20399;-85
2022/04/18 02:20:23;;;;;;;;;;;6.90;83.50;;;;;;5071231;28;19924;-88
2022/04/18 02:22:49;;;;;;;;;;;6.90;82.10;;;;;;5055492;28;19931;-85
2022/04/18 02:25:16;;;;;;;;;;;6.80;82.40;;;;;;5066390;28;19931;-85
2022/04/18 02:27:43;;;;;;;;;;;6.80;84.30;;;;;;5065185;28;19935;-85
2022/04/18 02:30:10;;;;;;;;;;;6.80;85.00;;;;;;5063017;28;19925;-88
2022/04/18 02:32:49;;;;;;;;;;;6.70;86.40;;;;;;5070174;28;19978;-86
2022/04/18 02:35:16;;;;;;;;;;;6.70;86.20;;;;;;5071357;28;19931;-85
2022/04/18 02:37:42;;;;;;;;;;;6.60;86.80;;;;;;5070841;28;19924;-85
2022/04/18 02:40:09;;;;;;;;;;;6.60;86.90;;;;;;5058713;28;20039;-84
2022/04/18 02:42:35;;;;;;;;;;;6.60;89.10;;;;;;5062145;28;20282;-85
2022/04/18 02:45:02;;;;;;;;;;;6.60;87.10;;;;;;5071056;28;19924;-84
2022/04/18 02:47:29;;;;;;;;;;;6.60;87.70;;;;;;5070139;28;19935;-86
2022/04/18 02:49:55;;;;;;;;;;;6.60;85.40;;;;;;5066500;28;19925;-85
2022/04/18 02:52:22;;;;;;;;;;;6.70;87.30;;;;;;5071002;28;19932;-85
2022/04/18 02:54:48;;;;;;;;;;;6.60;88.00;;;;;;5064965;28;19929;-84
2022/04/18 02:57:15;;;;;;;;;;;6.60;87.10;;;;;;5060701;28;19924;-85
2022/04/18 02:59:41;;;;;;;;;;;6.60;88.00;;;;;;5070640;28;19925;-85
2022/04/18 03:02:08;;;;;;;;;;;6.60;89.10;;;;;;5070758;28;19932;-84
2022/04/18 03:04:34;;;;;;;;;;;6.60;89.80;;;;;;5070470;28;19925;-84
2022/04/18 03:07:01;;;;;;;;;;;6.50;90.20;;;;;;5102461;28;19925;-85
2022/04/18 03:09:28;;;;;;;;;;;6.50;90.90;;;;;;5066840;28;19925;-88
2022/04/18 03:11:56;;;;;;;;;;;6.40;90.60;;;;;;5068914;28;20360;-85
2022/04/18 03:14:22;;;;;;;;;;;6.40;91.30;;;;;;5075554;28;19978;-85
2022/04/18 03:16:49;;;;;;;;;;;6.40;91.10;;;;;;5065626;28;20012;-85
2022/04/18 03:19:16;;;;;;;;;;;6.40;91.20;;;;;;5072682;28;19931;-88
2022/04/18 03:21:42;;;;;;;;;;;6.30;91.40;;;;;;5073248;28;20291;-89
2022/04/18 03:24:09;;;;;;;;;;;6.30;92.10;;;;;;5073886;28;19951;-88
2022/04/18 03:26:35;;;;;;;;;;;6.30;91.10;;;;;;5101873;28;19925;-87
2022/04/18 03:29:02;;;;;;;;;;;6.30;92.00;;;;;;5067236;28;19928;-87
2022/04/18 03:31:28;;;;;;;;;;;6.40;91.60;;;;;;5065856;28;19944;-87
2022/04/18 03:33:55;;;;;;;;;;;6.20;92.60;;;;;;5069880;28;19928;-87
2022/04/18 03:41:50;;;;;;;;;;;6.10;94.10;;;;;;5072374;28;19948;-88
2022/04/18 03:44:17;;;;;;;;;;;6.00;94.40;;;;;;5108352;28;19924;-87
2022/04/18 03:46:44;;;;;;;;;;;6.10;93.90;;;;;;5074013;28;19924;-86
2022/04/18 03:49:10;;;;;;;;;;;6.00;95.20;;;;;;5073787;28;19931;-87
2022/04/18 03:51:37;;;;;;;;;;;6.00;94.40;;;;;;5063019;28;19931;-88
2022/04/18 03:54:03;;;;;;;;;;;6.00;94.40;;;;;;5067146;28;19924;-88
2022/04/18 03:56:30;;;;;;;;;;;6.00;95.50;;;;;;5067027;28;19924;-87
2022/04/18 03:58:57;;;;;;;;;;;6.00;95.30;;;;;;5070579;28;20039;-87
2022/04/18 04:01:23;;;;;;;;;;;5.90;95.80;;;;;;5072097;28;19994;-88
2022/04/18 04:03:50;;;;;;;;;;;5.90;95.40;;;;;;5069660;28;19931;-87
2022/04/18 04:06:16;;;;;;;;;;;5.90;95.90;;;;;;5071731;28;19940;-87
2022/04/18 04:08:43;;;;;;;;;;;5.90;96.00;;;;;;5069210;28;19924;-87
2022/04/18 04:11:10;;;;;;;;;;;5.90;96.10;;;;;;5072964;28;19925;-86
2022/04/18 04:13:37;;;;;;;;;;;5.90;96.30;;;;;;5072342;28;20015;-87
2022/04/18 04:16:03;;;;;;;;;;;5.80;96.10;;;;;;5073098;28;19936;-87
2022/04/18 04:18:30;;;;;;;;;;;5.80;96.70;;;;;;5062131;28;19935;-87
2022/04/18 04:20:57;;;;;;;;;;;5.80;97.40;;;;;;5071711;28;19925;-87
2022/04/18 04:23:23;;;;;;;;;;;5.80;97.90;;;;;;5067863;28;19925;-87
2022/04/18 04:25:50;;;;;;;;;;;5.80;98.50;;;;;;5068323;28;19931;-86
2022/04/18 04:28:16;;;;;;;;;;;5.70;98.70;;;;;;5073224;28;19925;-86
2022/04/18 04:30:43;;;;;;;;;;;5.70;99.10;;;;;;5071931;28;19928;-87
2022/04/18 04:33:09;;;;;;;;;;;5.70;99.60;;;;;;5072818;28;19951;-87
2022/04/18 04:35:36;;;;;;;;;;;5.70;99.90;;;;;;5072449;28;19931;-88
2022/04/18 04:38:02;;;;;;;;;;;5.60;99.90;;;;;;5063587;28;19964;-87
2022/04/18 04:40:30;;;;;;;;;;;5.60;99.90;;;;;;5070756;28;20005;-87
2022/04/18 04:42:56;;;;;;;;;;;5.80;99.90;;;;;;5067841;28;19972;-86
2022/04/18 04:45:24;;;;;;;;;;;6.00;99.90;;;;;;5051683;28;20234;-86
2022/04/18 04:47:51;;;;;;;;;;;6.40;99.90;;;;;;5087418;28;19925;-86
2022/04/18 04:50:17;;;;;;;;;;;6.80;99.60;;;;;;5065005;28;19925;-86
2022/04/18 04:52:44;;;;;;;;;;;7.30;98.00;;;;;;5071974;28;19924;-86
2022/04/18 04:55:13;;;;;;;;;;;7.50;96.80;;;;;;5072460;28;20276;-87
2022/04/18 04:57:39;;;;;;;;;;;7.60;96.30;;;;;;5068400;28;19935;-87
2022/04/18 05:00:06;;;;;;;;;;;7.30;96.30;;;;;;5059685;28;19932;-87
2022/04/18 05:02:32;;;;;;;;;;;7.30;96.20;;;;;;5071586;28;19924;-86
2022/04/18 05:04:59;;;;;;;;;;;7.30;96.80;;;;;;5071786;28;19932;-87
2022/04/18 05:07:25;;;;;;;;;;;7.20;96.70;;;;;;5072371;28;19924;-86
2022/04/18 05:09:52;;;;;;;;;;;7.40;96.30;;;;;;5067412;28;19925;-87
2022/04/18 05:12:18;;;;;;;;;;;7.50;96.20;;;;;;5071877;28;19925;-87
2022/04/18 05:14:45;;;;;;;;;;;7.60;96.10;;;;;;5069456;28;20007;-87
2022/04/18 05:17:12;;;;;;;;;;;7.60;95.70;;;;;;5069775;28;19932;-87
2022/04/18 05:19:38;;;;;;;;;;;7.80;95.40;;;;;;5064093;28;19928;-88
2022/04/18 05:22:05;;;;;;;;;;;7.90;95.50;;;;;;5071031;28;19953;-87
2022/04/18 05:24:31;;;;;;;;;;;8.00;94.80;;;;;;5072249;28;20371;-87
2022/04/18 05:26:58;;;;;;;;;;;8.10;95.40;;;;;;5099463;28;20452;-87
2022/04/18 05:29:24;;;;;;;;;;;8.20;95.10;;;;;;5072055;28;20371;-87
2022/04/18 05:31:51;;;;;;;;;;;8.20;95.00;;;;;;5063944;28;20364;-87
2022/04/18 05:34:17;;;;;;;;;;;8.40;94.90;;;;;;5063007;28;19955;-87
2022/04/18 05:36:44;;;;;;;;;;;8.50;94.20;;;;;;5065711;28;19931;-87
2022/04/18 05:39:11;;;;;;;;;;;8.70;93.80;;;;;;5071035;28;19932;-87
2022/04/18 05:41:37;;;;;;;;;;;8.80;94.00;;;;;;5065412;28;19932;-87
2022/04/18 05:44:04;;;;;;;;;;;8.90;93.90;;;;;;5067623;28;19924;-85
2022/04/18 05:46:30;;;;;;;;;;;9.10;92.90;;;;;;5071904;28;19924;-79
2022/04/18 05:48:57;;;;;;;;;;;9.10;93.60;;;;;;5071451;28;19924;-86
2022/04/18 05:51:23;;;;;;;;;;;9.20;93.20;;;;;;5073072;28;19924;-86
2022/04/18 05:53:50;;;;;;;;;;;9.20;93.20;;;;;;5112689;27;19935;-87
2022/04/18 05:56:16;;;;;;;;;;;9.40;93.40;;;;;;5075232;28;19928;-86
2022/04/18 05:58:43;;;;;;;;;;;9.50;92.40;;;;;;5073213;28;19931;-88
2022/04/18 06:01:09;;;;;;;;;;;9.60;93.10;;;;;;5071900;28;19928;-86
2022/04/18 06:03:37;;;;;;;;;;;9.60;92.80;;;;;;5073783;28;19931;-86
2022/04/18 06:06:03;;;;;;;;;;;9.70;92.80;;;;;;5077980;28;19925;-86
2022/04/18 06:08:30;;;;;;;;;;;9.80;93.50;;;;;;5082750;28;19924;-87
2022/04/18 06:10:57;;;;;;;;;;;9.80;93.40;;;;;;5080381;28;19929;-86
2022/04/18 06:13:23;;;;;;;;;;;10.00;91.90;;;;;;5099259;28;19960;-87
2022/04/18 06:15:52;;;;;;;;;;;10.00;92.10;;;;;;5075466;28;19991;-86
2022/04/18 06:18:18;;;;;;;;;;;10.20;92.20;;;;;;5074825;28;20003;-86
2022/04/18 06:20:45;;;;;;;;;;;10.30;92.60;;;;;;5103560;28;19929;-88
2022/04/18 06:23:11;;;;;;;;;;;10.60;91.70;;;;;;5070590;28;19991;-86
2022/04/18 06:25:38;;;;;;;;;;;10.80;91.80;;;;;;5070814;28;19929;-87
2022/04/18 06:28:04;;;;;;;;;;;10.80;92.30;;;;;;5069293;28;20576;-86
2022/04/18 06:30:31;;;;;;;;;;;11.00;92.40;;;;;;5067165;28;20363;-86
2022/04/18 06:32:58;;;;;;;;;;;11.20;92.50;;;;;;5069929;28;19939;-87
2022/04/18 06:35:24;;;;;;;;;;;11.30;91.90;;;;;;5070485;28;20311;-90
2022/04/18 06:37:51;;;;;;;;;;;11.40;91.80;;;;;;5104980;28;20275;-86
2022/04/18 06:40:17;;;;;;;;;;;11.60;91.30;;;;;;5070036;28;19929;-88
2022/04/18 06:42:44;;;;;;;;;;;11.70;91.20;;;;;;5070287;28;20364;-88
2022/04/18 06:45:11;;;;;;;;;;;11.90;90.90;;;;;;5072089;28;19933;-88
2022/04/18 06:47:38;;;;;;;;;;;12.10;90.00;;;;;;5074048;28;19929;-88
2022/04/18 06:50:08;;;;;;;;;;;12.10;89.00;;;;;;5073620;28;19928;-90
2022/04/18 06:52:35;;;;;;;;;;;12.40;86.50;;;;;;5097419;28;19924;-88
2022/04/18 06:55:01;;;;;;;;;;;12.60;88.40;;;;;;5069806;28;19925;-87
2022/04/18 06:57:27;;;;;;;;;;;12.60;86.80;;;;;;5071865;28;19925;-87
2022/04/18 06:59:55;;;;;;;;;;;12.70;86.30;;;;;;5083722;28;19932;-87
2022/04/18 07:02:21;;;;;;;;;;;12.90;85.60;;;;;;5080024;28;20488;-87
2022/04/18 07:04:48;;;;;;;;;;;13.00;83.30;;;;;;5083488;28;20372;-87
2022/04/18 07:07:15;;;;;;;;;;;13.10;81.30;;;;;;5084409;28;19946;-86
2022/04/18 07:09:41;;;;;;;;;;;13.20;80.30;;;;;;5077817;28;20296;-86
2022/04/18 07:12:08;;;;;;;;;;;13.20;80.00;;;;;;5071649;28;19931;-86
2022/04/18 07:14:34;;;;;;;;;;;13.40;80.40;;;;;;5069047;28;19928;-87
2022/04/18 07:17:01;;;;;;;;;;;13.50;80.10;;;;;;5077721;28;19951;-87
2022/04/18 07:19:28;;;;;;;;;;;13.40;80.20;;;;;;5076598;28;19924;-87
2022/04/18 07:21:55;;;;;;;;;;;13.60;77.20;;;;;;5078398;28;19924;-87
2022/04/18 07:24:22;;;;;;;;;;;13.60;77.80;;;;;;5078780;28;20669;-87
2022/04/18 07:26:49;;;;;;;;;;;13.80;78.20;;;;;;5080065;28;19970;-87
2022/04/18 07:29:15;;;;;;;;;;;13.80;75.80;;;;;;5076963;28;19924;-86
2022/04/18 07:31:42;;;;;;;;;;;13.90;77.80;;;;;;5074835;28;19947;-87
2022/04/18 07:34:08;;;;;;;;;;;13.90;76.60;;;;;;5078741;28;19931;-88
2022/04/18 07:36:35;;;;;;;;;;;14.10;77.40;;;;;;5074760;28;19924;-87
2022/04/18 07:39:01;;;;;;;;;;;14.10;76.60;;;;;;5087336;28;19924;-87
2022/04/18 07:41:28;;;;;;;;;;;14.20;75.20;;;;;;5081401;28;19924;-87
2022/04/18 07:43:55;;;;;;;;;;;14.40;75.40;;;;;;5078114;28;19932;-87
2022/04/18 07:46:21;;;;;;;;;;;14.50;73.60;;;;;;5107784;28;19931;-93
2022/04/18 07:48:48;;;;;;;;;;;14.70;73.50;;;;;;5071026;28;19925;-95
2022/04/18 07:51:34;;;;;;;;;;;14.70;74.50;;;;;;5067763;28;20392;-87
2022/04/18 07:54:01;;;;;;;;;;;14.90;74.00;;;;;;5070655;28;20044;-87
2022/04/18 07:56:27;;;;;;;;;;;15.00;72.50;;;;;;5072430;28;19924;-88
2022/04/18 07:58:54;;;;;;;;;;;15.10;71.10;;;;;;5072787;28;19947;-88
2022/04/18 08:01:20;;;;;;;;;;;15.20;71.50;;;;;;5107294;28;19928;-88
2022/04/18 08:03:47;;;;;;;;;;;15.20;70.90;;;;;;5076770;28;19930;-89
2022/04/18 08:06:14;;;;;;;;;;;15.30;69.60;;;;;;5076992;28;19928;-88
2022/04/18 08:08:40;;;;;;;;;;;15.40;69.10;;;;;;5075975;28;19936;-88
2022/04/18 08:11:11;;;;;;;;;;;15.40;69.00;;;;;;5078789;28;19924;-88
2022/04/18 08:13:38;;;;;;;;;;;15.40;66.80;;;;;;5073421;28;19989;-87
2022/04/18 08:16:04;;;;;;;;;;;15.50;66.20;;;;;;5067068;28;19932;-88
2022/04/18 08:18:31;;;;;;;;;;;15.50;66.10;;;;;;5070077;28;19933;-86
2022/04/18 08:20:57;;;;;;;;;;;15.60;67.00;;;;;;5064557;28;19939;-79
2022/04/18 08:23:24;;;;;;;;;;;15.70;67.10;;;;;;5073723;28;19924;-80
2022/04/18 08:25:51;;;;;;;;;;;15.80;67.50;;;;;;5072277;28;19928;-86
2022/04/18 08:28:17;;;;;;;;;;;15.80;66.60;;;;;;5065114;28;19932;-78
2022/04/18 08:30:44;;;;;;;;;;;15.90;63.30;;;;;;5072572;28;20352;-82
2022/04/18 08:33:10;;;;;;;;;;;15.90;61.30;;;;;;5070492;28;19932;-85
2022/04/18 08:35:37;;;;;;;;;;;16.10;64.10;;;;;;5069253;28;19932;-78
2022/04/18 08:38:03;;;;;;;;;;;16.10;63.60;;;;;;5072388;28;19932;-79
2022/04/18 08:40:30;;;;;;;;;;;16.20;60.80;;;;;;5067848;28;19994;-81
2022/04/18 08:42:56;;;;;;;;;;;16.30;62.50;;;;;;5068686;28;19925;-84
2022/04/18 08:45:24;;;;;;;;;;;16.30;60.40;;;;;;5074800;28;19929;-82
2022/04/18 08:53:18;;;;;;;;;;;16.60;60.00;;;;;;5100398;28;19925;-82
2022/04/18 08:55:45;;;;;;;;;;;16.60;59.70;;;;;;5073146;28;19939;-81
2022/04/18 08:58:14;;;;;;;;;;;16.80;58.60;;;;;;5074751;28;19920;-81
2022/04/18 09:00:41;;;;;;;;;;;16.90;54.90;;;;;;5076229;28;19928;-82
2022/04/18 09:03:07;;;;;;;;;;;16.90;59.40;;;;;;5101063;28;19962;-82
2022/04/18 09:05:34;;;;;;;;;;;16.90;58.80;;;;;;5072583;28;19925;-82
2022/04/18 09:08:01;;;;;;;;;;;17.00;54.00;;;;;;5067846;28;19934;-83
2022/04/18 09:10:27;;;;;;;;;;;17.10;53.50;;;;;;5071737;28;19925;-82
2022/04/18 09:12:54;;;;;;;;;;;17.20;54.80;;;;;;5072444;28;20398;-84
2022/04/18 09:15:20;;;;;;;;;;;17.30;52.70;;;;;;5072887;28;19928;-82
2022/04/18 09:17:47;;;;;;;;;;;17.40;53.20;;;;;;5056383;28;20299;-83
2022/04/18 09:20:13;;;;;;;;;;;17.50;53.60;;;;;;5072302;28;19935;-83
2022/04/18 09:22:40;;;;;;;;;;;17.50;53.20;;;;;;5072374;28;20097;-83
2022/04/18 09:25:07;;;;;;;;;;;17.50;51.90;;;;;;5072662;28;19924;-83
2022/04/18 09:27:33;;;;;;;;;;;17.60;52.80;;;;;;5063453;28;20368;-84
2022/04/18 09:30:00;;;;;;;;;;;17.60;52.40;;;;;;5072487;28;19924;-83
2022/04/18 09:32:26;;;;;;;;;;;17.60;53.40;;;;;;5069208;28;19924;-82
2022/04/18 09:34:53;;;;;;;;;;;17.80;53.10;;;;;;5060094;28;20025;-89
2022/04/18 09:37:21;;;;;;;;;;;17.90;51.10;;;;;;5072092;28;20428;-83
2022/04/18 09:39:48;;;;;;;;;;;17.90;52.40;;;;;;5064269;28;20011;-84
2022/04/18 09:42:14;;;;;;;;;;;17.90;51.70;;;;;;5065878;28;20729;-83
2022/04/18 09:44:41;;;;;;;;;;;18.00;53.00;;;;;;5072537;28;19982;-84
2022/04/18 09:47:08;;;;;;;;;;;18.00;49.90;;;;;;5063198;28;19932;-84
2022/04/18 09:49:34;;;;;;;;;;;17.80;49.80;;;;;;5070683;28;19924;-85
2022/04/18 09:52:01;;;;;;;;;;;18.00;49.70;;;;;;5063038;28;19935;-84
2022/04/18 09:54:27;;;;;;;;;;;18.10;51.50;;;;;;5066311;28;19932;-84
2022/04/18 09:56:55;;;;;;;;;;;18.20;51.20;;;;;;5072131;28;19924;-92
2022/04/18 09:59:22;;;;;;;;;;;18.30;50.40;;;;;;5060356;28;19932;-83
2022/04/18 10:01:48;;;;;;;;;;;18.40;50.80;;;;;;5067961;28;20351;-84
2022/04/18 10:04:15;;;;;;;;;;;18.40;50.10;;;;;;5071947;28;19920;-84
2022/04/18 10:06:44;;;;;;;;;;;18.40;49.60;;;;;;5071502;28;19928;-86
2022/04/18 10:09:10;;;;;;;;;;;18.40;49.70;;;;;;5057565;28;20011;-84
2022/04/18 10:11:37;;;;;;;;;;;18.60;49.80;;;;;;5066758;28;19930;-84
2022/04/18 10:14:04;;;;;;;;;;;18.70;51.00;;;;;;5067949;28;19925;-84
2022/04/18 10:16:31;;;;;;;;;;;18.80;50.40;;;;;;5064969;28;19940;-84
2022/04/18 10:18:57;;;;;;;;;;;18.80;48.30;;;;;;5070551;28;19924;-88
2022/04/18 10:21:24;;;;;;;;;;;18.70;47.50;;;;;;5061621;28;19931;-84
2022/04/18 10:23:50;;;;;;;;;;;18.80;49.80;;;;;;5068719;28;19931;-85
2022/04/18 10:26:17;;;;;;;;;;;18.90;49.90;;;;;;5068551;28;19929;-85
2022/04/18 10:28:44;;;;;;;;;;;19.00;48.40;;;;;;5068753;28;19924;-85
2022/04/18 10:31:11;;;;;;;;;;;19.10;47.80;;;;;;5068991;28;20185;-84
2022/04/18 10:33:37;;;;;;;;;;;19.30;49.20;;;;;;5071457;28;19924;-81
2022/04/18 10:36:04;;;;;;;;;;;19.20;48.10;;;;;;5072357;28;20422;-83
2022/04/18 10:38:30;;;;;;;;;;;19.20;46.30;;;;;;5073866;28;19925;-83
2022/04/18 10:43:37;;;;;;;;;;;19.40;45.50;;;;;;5072495;28;19932;-82
2022/04/18 10:46:04;;;;;;;;;;;19.30;47.10;;;;;;5075783;28;19924;-82
2022/04/18 10:48:30;;;;;;;;;;;19.30;44.00;;;;;;5082238;28;19970;-83
2022/04/18 10:50:57;;;;;;;;;;;19.30;43.80;;;;;;5083886;28;19939;-90
2022/04/18 10:53:24;;;;;;;;;;;19.30;45.10;;;;;;5080198;28;19924;-83
2022/04/18 10:55:50;;;;;;;;;;;19.40;45.70;;;;;;5081132;28;19924;-81
2022/04/18 10:58:17;;;;;;;;;;;19.50;46.80;;;;;;5077349;28;19931;-83
2022/04/18 11:00:43;;;;;;;;;;;19.50;45.10;;;;;;5077268;28;19924;-82
2022/04/18 11:03:10;;;;;;;;;;;19.40;47.30;;;;;;5076135;28;19925;-83
2022/04/18 11:05:38;;;;;;;;;;;19.40;46.10;;;;;;5082929;28;19924;-83
2022/04/18 11:08:04;;;;;;;;;;;19.50;47.20;;;;;;5076498;28;20453;-83
2022/04/18 11:10:31;;;;;;;;;;;19.40;46.30;;;;;;5077977;28;20359;-86
2022/04/18 11:12:58;;;;;;;;;;;19.40;46.70;;;;;;5083861;28;19924;-85
2022/04/18 11:15:24;;;;;;;;;;;19.40;43.40;;;;;;5081056;28;20016;-83
2022/04/18 11:17:51;;;;;;;;;;;19.50;46.20;;;;;;5072883;28;19931;-85
2022/04/18 11:20:17;;;;;;;;;;;19.60;45.50;;;;;;5070723;28;19924;-82
2022/04/18 11:22:44;;;;;;;;;;;19.60;45.20;;;;;;5058279;28;19931;-77
2022/04/18 11:25:11;;;;;;;;;;;19.50;43.60;;;;;;5068014;28;19925;-85
2022/04/18 11:27:37;;;;;;;;;;;19.20;41.10;;;;;;5071218;28;19925;-86
2022/04/18 11:30:04;;;;;;;;;;;19.10;44.30;;;;;;5097948;28;19924;-87
2022/04/18 11:32:30;;;;;;;;;;;19.20;43.10;;;;;;5075652;28;19936;-86
2022/04/18 11:34:57;;;;;;;;;;;19.20;45.30;;;;;;5074597;28;19991;-85
2022/04/18 11:37:24;;;;;;;;;;;19.40;44.90;;;;;;5075358;28;19934;-85
2022/04/18 11:39:50;;;;;;;;;;;19.30;42.10;;;;;;5064180;28;19925;-85
2022/04/18 11:42:17;;;;;;;;;;;19.40;42.70;;;;;;5074905;28;20015;-85
2022/04/18 11:44:44;;;;;;;;;;;19.50;44.30;;;;;;5079262;28;20281;-85
2022/04/18 11:47:10;;;;;;;;;;;19.40;42.00;;;;;;5074364;28;19925;-86
2022/04/18 11:49:37;;;;;;;;;;;19.60;43.00;;;;;;5074520;28;19931;-85
2022/04/18 11:52:04;;;;;;;;;;;19.50;41.50;;;;;;5074326;28;19963;-90
2022/04/18 11:54:31;;;;;;;;;;;19.40;40.90;;;;;;5071478;28;19925;-85
2022/04/18 11:56:57;;;;;;;;;;;19.50;41.40;;;;;;5074926;28;19940;-85
2022/04/18 11:59:24;;;;;;;;;;;19.60;42.70;;;;;;5077737;28;20546;-86
2022/04/18 12:07:19;;;;;;;;;;;19.60;41.90;;;;;;5039877;28;19925;-85
2022/04/18 12:09:46;;;;;;;;;;;19.60;42.20;;;;;;5075144;28;19947;-83
2022/04/18 12:12:12;;;;;;;;;;;19.70;43.50;;;;;;5103589;28;19938;-84
2022/04/18 12:14:39;;;;;;;;;;;19.80;42.10;;;;;;5061772;28;20419;-85
2022/04/18 12:17:06;;;;;;;;;;;19.70;43.10;;;;;;5066147;28;19925;-92
2022/04/18 12:19:32;;;;;;;;;;;19.80;40.60;;;;;;5068312;28;19932;-87
2022/04/18 12:21:59;;;;;;;;;;;19.90;41.40;;;;;;5079217;28;19924;-85
2022/04/18 12:24:25;;;;;;;;;;;19.20;38.70;;;;;;5074071;28;20129;-85
2022/04/18 12:26:52;;;;;;;;;;;19.30;41.10;;;;;;5062048;28;20368;-86
2022/04/18 12:29:19;;;;;;;;;;;19.50;41.90;;;;;;5069290;28;20276;-85
2022/04/18 12:31:45;;;;;;;;;;;19.60;41.60;;;;;;5068562;28;20431;-85
2022/04/18 12:34:12;;;;;;;;;;;19.80;40.80;;;;;;5075883;28;20319;-86
2022/04/18 12:36:38;;;;;;;;;;;19.80;41.60;;;;;;5074356;28;19925;-85
2022/04/18 12:39:06;;;;;;;;;;;19.90;41.00;;;;;;5068469;28;19925;-86
2022/04/18 12:41:32;;;;;;;;;;;20.00;38.60;;;;;;5071934;28;19928;-85
2022/04/18 12:43:59;;;;;;;;;;;19.90;38.00;;;;;;5074854;28;19931;-85
2022/04/18 12:46:26;;;;;;;;;;;19.90;40.40;;;;;;5072427;28;19982;-86
2022/04/18 12:48:53;;;;;;;;;;;19.70;38.00;;;;;;5072492;28;19932;-86
2022/04/18 12:51:19;;;;;;;;;;;19.80;38.90;;;;;;5072495;28;20012;-85
2022/04/18 12:53:46;;;;;;;;;;;19.80;42.20;;;;;;5073047;28;20735;-85
2022/04/18 12:56:13;;;;;;;;;;;19.90;41.20;;;;;;5070887;28;19979;-85
2022/04/18 12:58:40;;;;;;;;;;;20.00;39.70;;;;;;5073814;28;20027;-86
2022/04/18 13:01:06;;;;;;;;;;;20.00;39.30;;;;;;5069615;28;19925;-85
2022/04/18 13:03:33;;;;;;;;;;;19.90;40.00;;;;;;5074110;28;19924;-85
2022/04/18 13:06:00;;;;;;;;;;;19.90;39.10;;;;;;5072032;28;19931;-85
2022/04/18 13:08:26;;;;;;;;;;;20.10;41.50;;;;;;5066885;28;19924;-86
2022/04/18 13:10:53;;;;;;;;;;;20.20;40.40;;;;;;5072530;28;19929;-80
2022/04/18 13:13:19;;;;;;;;;;;20.10;39.40;;;;;;5074011;28;19932;-85
2022/04/18 13:15:46;;;;;;;;;;;20.20;42.20;;;;;;5073220;28;19931;-87
2022/04/18 13:18:13;;;;;;;;;;;20.10;38.30;;;;;;5071232;28;20693;-88
2022/04/18 13:20:39;;;;;;;;;;;20.20;36.90;;;;;;5071971;28;20414;-86
2022/04/18 13:23:06;;;;;;;;;;;20.00;38.10;;;;;;5072462;28;20595;-87
2022/04/18 13:25:32;;;;;;;;;;;20.10;40.20;;;;;;5072146;28;20035;-86
2022/04/18 13:28:01;;;;;;;;;;;20.30;38.30;;;;;;5072410;28;20283;-86
2022/04/18 13:30:28;;;;;;;;;;;20.30;36.50;;;;;;5071176;28;19931;-87
2022/04/18 13:32:54;;;;;;;;;;;20.20;37.70;;;;;;5071992;28;19925;-87
2022/04/18 13:35:21;;;;;;;;;;;20.30;39.50;;;;;;5062610;28;19926;-87
2022/04/18 13:37:48;;;;;;;;;;;20.30;40.60;;;;;;5063069;28;19931;-87
2022/04/18 13:40:14;;;;;;;;;;;20.20;39.70;;;;;;5072364;28;19931;-87
2022/04/18 13:42:41;;;;;;;;;;;20.10;38.70;;;;;;5059799;28;20376;-86
2022/04/18 13:45:08;;;;;;;;;;;20.20;40.50;;;;;;5053530;28;19931;-88
2022/04/18 13:47:35;;;;;;;;;;;20.20;41.10;;;;;;5101637;28;19939;-87
2022/04/18 13:50:01;;;;;;;;;;;20.10;39.20;;;;;;5072775;28;19931;-88
2022/04/18 13:52:28;;;;;;;;;;;19.90;38.50;;;;;;5103333;28;20392;-88
2022/04/18 13:54:54;;;;;;;;;;;20.00;39.90;;;;;;5062957;28;20295;-88
2022/04/18 13:57:21;;;;;;;;;;;20.00;41.40;;;;;;5068667;28;20355;-88
2022/04/18 13:59:47;;;;;;;;;;;20.10;41.60;;;;;;5071015;28;19947;-88
2022/04/18 14:02:14;;;;;;;;;;;20.30;41.00;;;;;;5071839;28;19929;-92
2022/04/18 14:04:40;;;;;;;;;;;20.40;40.00;;;;;;5065508;28;19924;-87
2022/04/18 14:07:07;;;;;;;;;;;20.50;42.30;;;;;;5068867;28;19932;-90
2022/04/18 14:09:34;;;;;;;;;;;20.50;40.40;;;;;;5059267;28;19927;-88
2022/04/18 14:12:00;;;;;;;;;;;20.50;39.50;;;;;;5072362;28;19932;-87
2022/04/18 14:22:39;;;;;;;;;;;20.30;38.70;;;;;;5091685;28;20422;-80
2022/04/18 14:25:06;;;;;;;;;;;20.10;39.30;;;;;;5072020;28;20295;-81
2022/04/18 14:27:32;;;;;;;;;;;20.20;38.40;;;;;;5070412;28;19929;-78
2022/04/18 14:29:59;;;;;;;;;;;20.00;37.90;;;;;;5072156;28;19928;-79
2022/04/18 14:32:26;;;;;;;;;;;19.90;37.60;;;;;;5070316;28;19924;-76
2022/04/18 14:34:52;;;;;;;;;;;20.20;39.60;;;;;;5072000;28;19932;-77
2022/04/18 14:37:22;;;;;;;;;;;20.20;39.90;;;;;;5070646;28;19924;-84
2022/04/18 14:39:49;;;;;;;;;;;20.30;38.50;;;;;;5070529;28;19924;-83
2022/04/18 14:42:15;;;;;;;;;;;20.40;39.00;;;;;;5066805;28;19931;-88
2022/04/18 14:44:42;;;;;;;;;;;20.50;39.90;;;;;;5067738;28;19932;-85
2022/04/18 14:47:09;;;;;;;;;;;20.40;39.50;;;;;;5075032;28;20357;-85
2022/04/18 14:49:37;;;;;;;;;;;20.20;39.70;;;;;;5073298;28;19963;-85